Time;durP1;ratioP1;P1;durP2;ratioP2;P2;SDS_P1;SDS_P2;PMS_P1;PMS_P2;Temp;Humidity;BMP_temperature;BMP_pressure;BME280_temperature;BME280_humidity;BME280_pressure;Samples;Min_cycle;Max_cycle;Signal;HPM_P1;HPM_P2
2021/12/29 00:00:23;;;;;;;17.85;9.58;;;;;;;1.27;100.00;100055.05;1717082;82;21060;-66
2021/12/29 00:02:51;;;;;;;19.92;11.08;;;;;;;1.26;100.00;100059.69;1697566;82;21524;-66
2021/12/29 00:05:18;;;;;;;24.37;11.88;;;;;;;1.26;100.00;100056.75;1709516;82;21521;-65
2021/12/29 00:07:45;;;;;;;20.95;11.88;;;;;;;1.27;100.00;100062.22;1705411;82;20993;-66
2021/12/29 00:10:14;;;;;;;19.40;10.80;;;;;;;1.30;100.00;100064.73;1704956;82;21059;-66
2021/12/29 00:12:46;;;;;;;18.27;10.32;;;;;;;1.27;100.00;100062.22;1721612;82;21472;-66
2021/12/29 00:15:14;;;;;;;18.45;10.13;;;;;;;1.24;100.00;100058.88;1716190;81;21000;-66
2021/12/29 00:17:43;;;;;;;22.73;11.88;;;;;;;1.24;100.00;100058.88;1702070;82;21004;-66
2021/12/29 00:20:14;;;;;;;25.65;12.70;;;;;;;1.26;100.00;100067.30;1697523;83;20989;-66
2021/12/29 00:22:42;;;;;;;25.90;13.18;;;;;;;1.26;100.00;100074.50;1714555;81;21071;-66
2021/12/29 00:25:10;;;;;;;26.95;12.85;;;;;;;1.25;100.00;100074.08;1705147;82;21000;-66
2021/12/29 00:27:41;;;;;;;20.52;11.08;;;;;;;1.16;100.00;100075.47;1706684;82;21056;-66
2021/12/29 00:30:12;;;;;;;22.80;12.50;;;;;;;1.16;100.00;100075.47;1709657;82;21516;-66
2021/12/29 00:32:41;;;;;;;26.95;12.63;;;;;;;1.15;100.00;100081.39;1689702;82;21051;-66
2021/12/29 00:35:27;;;;;;;32.90;15.28;;;;;;;1.15;100.00;100081.39;1718108;82;21016;-66
2021/12/29 00:38:13;;;;;;;33.53;15.68;;;;;;;1.24;100.00;100076.22;1717889;82;21036;-66
2021/12/29 00:40:58;;;;;;;31.35;14.40;;;;;;;1.27;100.00;100068.99;1710579;82;21012;-66
2021/12/29 00:43:44;;;;;;;;;;;;;;;1.22;100.00;100068.20;1672093;85;21048;-66
2021/12/29 00:46:23;;;;;;;22.98;12.35;;;;;;;1.13;100.00;100064.09;1698389;82;20126;-66
2021/12/29 00:48:50;;;;;;;28.12;13.62;;;;;;;1.16;100.00;100072.50;1704047;82;21115;-66
2021/12/29 00:51:17;;;;;;;27.93;14.18;;;;;;;1.14;100.00;100069.15;1701698;82;21024;-66
2021/12/29 00:53:44;;;;;;;32.60;15.20;;;;;;;1.16;100.00;100075.47;1707026;82;21020;-66
2021/12/29 00:56:11;;;;;;;25.12;13.13;;;;;;;1.15;100.00;100072.08;1713144;82;21083;-66
2021/12/29 00:58:38;;;;;;;23.65;12.88;;;;;;;1.18;100.00;100075.03;1708173;82;21544;-66
2021/12/29 01:01:05;;;;;;;20.05;10.90;;;;;;;1.19;100.00;100081.32;1716231;82;21040;-65
2021/12/29 01:03:34;;;;;;;18.00;9.60;;;;;;;1.13;100.00;100085.64;1715713;82;21099;-65
2021/12/29 01:06:01;;;;;;;20.75;10.75;;;;;;;1.09;100.00;100078.93;1698294;83;21021;-66
2021/12/29 01:08:29;;;;;;;41.40;17.17;;;;;;;1.07;100.00;100080.64;1693522;83;21524;-66
2021/12/29 01:10:57;;;;;;;113.47;35.17;;;;;;;0.98;100.00;100093.84;1713471;82;20987;-66
2021/12/29 01:13:34;;;;;;;52.90;20.15;;;;;;;1.05;100.00;100091.23;1705398;82;20997;-66
2021/12/29 01:18:38;;;;;;;26.70;13.78;;;;;;;1.03;100.00;100092.51;1760863;80;20976;-66
2021/12/29 01:21:06;;;;;;;22.82;11.38;;;;;;;0.98;100.00;100101.44;1759131;81;21015;-66
2021/12/29 01:23:33;;;;;;;52.48;20.27;;;;;;;0.94;100.00;100109.10;1720673;82;21053;-66
2021/12/29 01:26:01;;;;;;;68.95;26.85;;;;;;;0.87;100.00;100112.55;1760631;80;20974;-66
2021/12/29 01:28:27;;;;;;;61.60;27.05;;;;;;;0.92;100.00;100105.75;1761472;80;21050;-67
2021/12/29 01:30:55;;;;;;;29.65;15.70;;;;;;;0.92;100.00;100109.55;1745222;81;20943;-66
2021/12/29 01:33:23;;;;;;;25.90;13.53;;;;;;;0.91;100.00;100107.45;1750394;81;21061;-66
2021/12/29 01:35:51;;;;;;;23.22;12.20;;;;;;;0.91;100.00;100112.52;1759491;81;20992;-67
2021/12/29 01:38:18;;;;;;;31.45;15.53;;;;;;;0.98;100.00;100126.78;1715730;82;21018;-66
2021/12/29 01:40:48;;;;;;;29.70;15.18;;;;;;;0.93;100.00;100120.94;1760338;80;20968;-66
2021/12/29 01:43:13;;;;;;;41.42;16.85;;;;;;;0.91;100.00;100121.39;1723958;82;21002;-67
2021/12/29 01:45:40;;;;;;;42.17;20.10;;;;;;;0.90;100.00;100125.20;1696146;83;21057;-67
2021/12/29 01:48:07;;;;;;;34.98;16.75;;;;;;;0.91;100.00;100120.12;1697038;83;21135;-67
2021/12/29 01:50:38;;;;;;;29.60;14.65;;;;;;;0.91;100.00;100120.12;1704063;82;20990;-68
2021/12/29 01:53:10;;;;;;;34.45;16.85;;;;;;;0.84;100.00;100120.20;1753517;80;21024;-67
2021/12/29 01:55:40;;;;;;;43.98;19.45;;;;;;;0.90;100.00;100125.20;1749965;81;21006;-68
2021/12/29 01:58:07;;;;;;;37.33;17.12;;;;;;;0.93;100.00;100130.22;1760409;80;20999;-68
2021/12/29 02:00:37;;;;;;;74.35;25.10;;;;;;;0.91;100.00;100134.46;1761125;81;21453;-67
2021/12/29 02:03:07;;;;;;;59.55;22.93;;;;;;;0.70;100.00;100136.36;1759203;79;20972;-67
2021/12/29 02:05:39;;;;;;;44.08;21.07;;;;;;;0.71;100.00;100134.66;1720756;82;21034;-67
2021/12/29 02:08:08;;;;;;;41.20;19.62;;;;;;;0.76;100.00;100136.30;1695431;83;21484;-67
2021/12/29 02:10:43;;;;;;;33.20;17.07;;;;;;;0.68;100.00;100137.23;1699692;83;21000;-67
2021/12/29 02:13:06;;;;;;;31.15;16.55;;;;;;;0.62;100.00;100144.46;1694012;83;21098;-67
2021/12/29 02:15:33;;;;;;;37.67;18.27;;;;;;;0.62;100.00;100153.33;1704662;82;20959;-67
2021/12/29 02:18:00;;;;;;;55.25;21.93;;;;;;;0.72;100.00;100152.82;1760070;80;20996;-67
2021/12/29 02:20:27;;;;;;;38.33;18.25;;;;;;;0.68;100.00;100158.77;1759559;80;21035;-67
2021/12/29 02:23:19;;;;;;;39.92;19.12;;;;;;;0.49;100.00;100169.06;1761153;81;21014;-67
2021/12/29 02:25:35;;;;;;;36.17;16.73;;;;;;;0.47;100.00;100174.57;1744908;80;21503;-67
2021/12/29 02:27:54;;;;;;;36.03;16.62;;;;;;;0.50;100.00;100170.73;1761494;81;20996;-67
2021/12/29 02:30:25;;;;;;;36.77;17.25;;;;;;;0.44;100.00;100170.78;1720032;82;21052;-67
2021/12/29 02:32:57;;;;;;;36.40;17.15;;;;;;;0.44;100.00;100175.84;1755380;81;21064;-67
2021/12/29 02:35:25;;;;;;;40.00;17.92;;;;;;;0.49;100.00;100161.47;1750493;81;21014;-68
2021/12/29 02:37:52;;;;;;;76.77;22.65;;;;;;;0.43;100.00;100167.84;1746672;81;21058;-67
2021/12/29 02:40:19;;;;;;;105.05;28.52;;;;;;;0.45;100.00;100162.34;1749358;81;21443;-67
2021/12/29 02:42:47;;;;;;;92.85;26.25;;;;;;;0.32;100.00;100163.28;1750215;81;20961;-68
2021/12/29 02:45:19;;;;;;;84.03;28.83;;;;;;;0.36;100.00;100166.20;1745757;81;20990;-67
2021/12/29 02:47:46;;;;;;;40.25;19.55;;;;;;;0.39;100.00;100168.73;1750481;81;21022;-67
2021/12/29 02:50:16;;;;;;;33.58;16.75;;;;;;;0.31;100.00;100178.08;1747335;81;21514;-68
2021/12/29 02:52:45;;;;;;;38.33;17.07;;;;;;;0.29;100.00;100179.34;1754404;81;21067;-67
2021/12/29 02:55:13;;;;;;;70.10;22.52;;;;;;;0.16;100.00;100195.05;1718870;82;21498;-67
2021/12/29 02:57:40;;;;;;;74.70;25.30;;;;;;;-0.06;100.00;100203.59;1760971;80;21017;-67
2021/12/29 03:00:12;;;;;;;75.28;25.23;;;;;;;-0.02;100.00;100211.19;1758774;80;20941;-67
2021/12/29 03:02:40;;;;;;;64.60;27.55;;;;;;;-0.10;100.00;100215.84;1716662;82;21032;-67
2021/12/29 03:05:08;;;;;;;35.70;18.70;;;;;;;-0.06;100.00;100218.77;1707098;83;21032;-67
2021/12/29 03:07:36;;;;;;;37.60;18.87;;;;;;;-0.07;100.00;100222.17;1707097;83;21028;-67
2021/12/29 03:10:05;;;;;;;38.23;18.65;;;;;;;0.02;100.00;100222.14;1708755;84;21048;-67
2021/12/29 03:12:31;;;;;;;33.90;17.05;;;;;;;-0.24;100.00;100234.48;1774846;81;21526;-67
2021/12/29 03:14:58;;;;;;;31.10;15.13;;;;;;;-0.25;100.00;100239.10;1775027;81;21519;-67
2021/12/29 03:17:25;;;;;;;29.85;14.07;;;;;;;-0.29;100.00;100239.97;1774888;81;20996;-67
2021/12/29 03:19:52;;;;;;;30.17;16.02;;;;;;;-0.45;100.00;100243.40;1774863;80;21039;-67
2021/12/29 03:22:19;;;;;;;36.83;17.52;;;;;;;-0.27;100.00;100241.23;1775057;80;21544;-67
2021/12/29 03:24:46;;;;;;;69.65;22.62;;;;;;;-0.49;100.00;100239.20;1775355;80;21498;-66
2021/12/29 03:27:13;;;;;;;64.77;26.97;;;;;;;-0.40;100.00;100236.66;1774904;80;21028;-67
2021/12/29 03:29:40;;;;;;;35.85;17.95;;;;;;;-0.44;100.00;100243.40;1774994;80;21449;-66
2021/12/29 03:32:09;;;;;;;37.45;17.70;;;;;;;-0.44;100.00;100244.66;1774880;81;21078;-66
2021/12/29 03:34:36;;;;;;;38.23;16.52;;;;;;;-0.51;100.00;100244.69;1775182;81;21039;-66
2021/12/29 03:37:04;;;;;;;34.53;16.97;;;;;;;-0.55;100.00;100244.27;1774794;80;21036;-66
2021/12/29 03:39:37;;;;;;;39.20;18.20;;;;;;;-0.60;100.00;100243.03;1775177;81;20996;-66
2021/12/29 03:41:59;;;;;;;54.08;21.48;;;;;;;-0.48;100.00;100249.75;1774040;81;21019;-66
2021/12/29 03:44:25;;;;;;;61.90;22.82;;;;;;;-0.49;100.00;100260.69;1775114;80;20960;-66
2021/12/29 03:46:52;;;;;;;91.35;28.52;;;;;;;-0.59;100.00;100260.30;1775041;81;21531;-66
2021/12/29 03:49:19;;;;;;;64.58;24.18;;;;;;;-0.67;100.00;100264.09;1775167;80;21082;-66
2021/12/29 03:51:46;;;;;;;39.75;18.67;;;;;;;-0.74;100.00;100275.08;1774732;81;21027;-66
2021/12/29 03:54:12;;;;;;;38.08;17.05;;;;;;;-0.78;100.00;100272.98;1775125;81;21008;-66
2021/12/29 03:56:39;;;;;;;35.28;16.37;;;;;;;-0.79;100.00;100271.70;1775035;80;21539;-66
2021/12/29 03:59:06;;;;;;;37.53;16.65;;;;;;;-0.71;100.00;100270.00;1774614;81;21055;-66
2021/12/29 04:01:33;;;;;;;66.42;23.05;;;;;;;-0.86;100.00;100279.72;1775363;81;21492;-65
2021/12/29 04:03:59;;;;;;;65.97;24.10;;;;;;;-0.83;100.00;100280.57;1775288;80;21043;-65
2021/12/29 04:06:26;;;;;;;49.42;19.48;;;;;;;-1.16;100.00;100283.94;1775111;81;20996;-66
2021/12/29 04:08:53;;;;;;;51.85;22.87;;;;;;;-1.05;100.00;100284.80;1775040;81;21042;-66
2021/12/29 04:11:20;;;;;;;41.63;20.25;;;;;;;-0.92;100.00;100278.04;1775149;80;21464;-65
2021/12/29 04:13:47;;;;;;;37.08;17.67;;;;;;;-1.01;100.00;100277.63;1774818;81;21068;-65
2021/12/29 04:16:17;;;;;;;47.33;20.05;;;;;;;-0.95;100.00;100278.45;1775138;81;21007;-66
2021/12/29 04:19:06;;;;;;;98.37;30.55;;;;;;;-1.06;100.00;100280.56;1774723;81;21060;-66
2021/12/29 04:21:18;;;;;;;105.35;31.07;;;;;;;-1.02;100.00;100280.16;1772530;81;21003;-66
2021/12/29 04:23:45;;;;;;;68.10;25.57;;;;;;;-1.14;100.00;100287.73;1775007;81;20988;-65
2021/12/29 04:26:12;;;;;;;47.35;19.85;;;;;;;-1.09;100.00;100282.28;1775065;80;21028;-66
2021/12/29 04:28:39;;;;;;;41.48;17.20;;;;;;;-1.21;100.00;100291.52;1775122;80;21005;-65
2021/12/29 04:31:08;;;;;;;36.25;17.95;;;;;;;-1.31;100.00;100298.67;1775085;80;21106;-66
2021/12/29 04:33:38;;;;;;;41.60;17.32;;;;;;;-1.07;100.00;100296.58;1774936;81;21059;-65
2021/12/29 04:36:06;;;;;;;44.88;18.25;;;;;;;-1.07;100.00;100302.06;1774928;81;21015;-66
2021/12/29 04:38:35;;;;;;;42.27;18.25;;;;;;;-1.00;100.00;100298.68;1774915;80;21476;-66
2021/12/29 04:41:03;;;;;;;43.10;19.25;;;;;;;-1.11;100.00;100303.73;1775017;81;21508;-66
2021/12/29 04:43:30;;;;;;;39.73;18.25;;;;;;;-1.06;100.00;100304.56;1774863;81;21023;-66
2021/12/29 04:45:57;;;;;;;33.10;16.23;;;;;;;-1.07;100.00;100309.22;1774703;81;21024;-66
2021/12/29 04:48:25;;;;;;;36.58;16.25;;;;;;;-1.08;100.00;100302.46;1775070;81;21055;-66
2021/12/29 04:51:04;;;;;;;41.60;16.37;;;;;;;-1.03;100.00;100307.11;1774957;81;21047;-66
2021/12/29 04:53:24;;;;;;;36.35;15.38;;;;;;;-1.04;100.00;100309.62;1773552;81;21044;-65
2021/12/29 04:55:54;;;;;;;35.43;15.05;;;;;;;-1.09;100.00;100313.42;1775076;80;21074;-66
2021/12/29 04:58:21;;;;;;;32.48;15.00;;;;;;;-1.17;100.00;100313.84;1774428;80;21051;-67
2021/12/29 05:00:51;;;;;;;47.23;19.75;;;;;;;-1.21;100.00;100321.00;1774889;81;21024;-65
2021/12/29 05:03:20;;;;;;;33.80;15.85;;;;;;;-1.15;100.00;100318.47;1775188;80;20980;-66
2021/12/29 05:05:57;;;;;;;33.70;15.03;;;;;;;-1.26;100.00;100321.00;1774892;81;21067;-66
2021/12/29 05:08:25;;;;;;;37.15;16.20;;;;;;;-1.29;100.00;100317.63;1774676;81;21059;-65
2021/12/29 05:11:06;;;;;;;43.68;17.32;;;;;;;-1.45;100.00;100323.06;1778783;80;21510;-65
2021/12/29 05:13:38;;;;;;;40.08;16.80;;;;;;;-1.62;100.00;100327.65;1776083;80;21114;-66
2021/12/29 05:16:06;;;;;;;35.78;17.35;;;;;;;-1.61;100.00;100329.32;1770135;80;20988;-65
2021/12/29 05:18:36;;;;;;;35.85;16.50;;;;;;;-1.63;100.00;100328.47;1777230;80;21058;-66
2021/12/29 05:21:06;;;;;;;44.08;18.77;;;;;;;-1.55;100.00;100327.23;1777941;79;21091;-65
2021/12/29 05:23:33;;;;;;;39.08;17.37;;;;;;;-1.51;100.00;100330.62;1771401;81;21024;-65
2021/12/29 05:26:01;;;;;;;39.65;18.10;;;;;;;-1.47;100.00;100332.31;1774646;81;21023;-65
2021/12/29 05:28:27;;;;;;;41.92;17.77;;;;;;;-1.68;100.00;100343.20;1775064;81;21067;-66
2021/12/29 05:30:55;;;;;;;38.58;17.75;;;;;;;-1.67;100.00;100345.70;1774561;80;21102;-65
2021/12/29 05:33:22;;;;;;;38.63;17.67;;;;;;;-1.62;100.00;100341.95;1775162;81;21551;-65
2021/12/29 05:35:50;;;;;;;42.13;18.15;;;;;;;-1.55;100.00;100349.12;1774662;81;21456;-65
2021/12/29 05:38:17;;;;;;;43.87;17.75;;;;;;;-1.51;100.00;100346.59;1774928;81;21503;-65
2021/12/29 05:40:45;;;;;;;41.42;17.37;;;;;;;-1.53;100.00;100356.28;1775160;80;21036;-65
2021/12/29 05:43:12;;;;;;;38.20;17.60;;;;;;;-1.77;100.00;100357.87;1774876;81;21004;-65
2021/12/29 05:45:40;;;;;;;39.10;15.85;;;;;;;-1.83;100.00;100362.47;1774728;81;21051;-65
2021/12/29 05:48:07;;;;;;;44.48;17.77;;;;;;;-1.90;100.00;100354.89;1774906;80;21044;-65
2021/12/29 05:50:34;;;;;;;41.18;18.25;;;;;;;-1.89;100.00;100371.70;1774714;81;21005;-65
2021/12/29 05:53:02;;;;;;;53.20;21.25;;;;;;;-1.88;100.00;100364.14;1775055;80;20987;-65
2021/12/29 05:55:30;;;;;;;39.27;16.48;;;;;;;-1.78;100.00;100365.42;1774880;81;21027;-65
2021/12/29 05:57:57;;;;;;;41.45;17.23;;;;;;;-1.93;100.00;100364.52;1775010;80;21023;-65
2021/12/29 06:00:26;;;;;;;40.28;17.73;;;;;;;-1.95;100.00;100363.67;1774735;81;21539;-65
2021/12/29 06:02:54;;;;;;;41.83;18.27;;;;;;;-1.85;100.00;100366.66;1774848;81;21019;-65
2021/12/29 06:05:24;;;;;;;35.63;16.75;;;;;;;-1.76;100.00;100369.66;1774883;81;21511;-65
2021/12/29 06:07:51;;;;;;;53.23;21.70;;;;;;;-1.95;100.00;100375.45;1774549;81;21086;-65
2021/12/29 06:10:19;;;;;;;43.30;17.62;;;;;;;-1.86;100.00;100387.70;1774844;81;21012;-65
2021/12/29 06:12:46;;;;;;;44.15;17.15;;;;;;;-1.82;100.00;100381.83;1774920;80;21515;-65
2021/12/29 06:15:14;;;;;;;40.52;17.90;;;;;;;-1.85;100.00;100383.06;1775106;81;21036;-66
2021/12/29 06:17:41;;;;;;;40.85;17.50;;;;;;;-1.93;100.00;100387.66;1774857;80;21036;-66
2021/12/29 06:20:12;;;;;;;32.48;14.80;;;;;;;-1.74;100.00;100383.13;1775072;81;21587;-66
2021/12/29 06:22:40;;;;;;;36.98;16.50;;;;;;;-1.84;100.00;100384.77;1775102;80;21016;-66
2021/12/29 06:25:11;;;;;;;43.55;18.52;;;;;;;-1.81;100.00;100386.45;1774947;81;21032;-66
2021/12/29 06:27:39;;;;;;;41.73;18.40;;;;;;;-1.91;100.00;100384.72;1774751;81;21035;-66
2021/12/29 06:30:10;;;;;;;50.55;20.43;;;;;;;-1.91;100.00;100386.81;1774982;81;21559;-65
2021/12/29 06:32:38;;;;;;;42.05;17.95;;;;;;;-1.83;100.00;100390.64;1774956;81;21044;-66
2021/12/29 06:35:08;;;;;;;50.70;20.02;;;;;;;-1.91;100.00;100392.29;1774885;80;21072;-66
2021/12/29 06:37:35;;;;;;;59.33;23.45;;;;;;;-1.77;100.00;100396.98;1769469;81;21018;-66
2021/12/29 06:40:02;;;;;;;67.30;26.00;;;;;;;-1.76;100.00;100403.73;1744554;82;21031;-65
2021/12/29 06:42:30;;;;;;;53.38;21.95;;;;;;;-1.97;100.00;100417.48;1708864;84;21034;-66
2021/12/29 06:44:59;;;;;;;35.88;16.52;;;;;;;-1.90;100.00;100415.02;1698559;83;21589;-66
2021/12/29 06:47:27;;;;;;;40.80;16.57;;;;;;;-1.96;100.00;100416.23;1701276;83;21620;-66
2021/12/29 06:49:54;;;;;;;52.93;20.17;;;;;;;-1.87;100.00;100422.58;1692969;84;20981;-66
2021/12/29 06:52:23;;;;;;;52.15;19.85;;;;;;;-1.85;100.00;100428.48;1689806;83;21099;-66
2021/12/29 06:54:50;;;;;;;68.40;24.80;;;;;;;-1.76;100.00;100426.84;1719038;82;20998;-66
2021/12/29 06:57:18;;;;;;;62.25;24.65;;;;;;;-1.87;100.00;100430.15;1751647;80;20980;-66
2021/12/29 06:59:44;;;;;;;44.75;19.17;;;;;;;-1.98;100.00;100435.56;1748506;81;21044;-65
2021/12/29 07:02:14;;;;;;;40.25;18.07;;;;;;;-1.93;100.00;100443.98;1749453;81;20969;-65
2021/12/29 07:04:43;;;;;;;42.13;18.65;;;;;;;-2.01;100.00;100449.41;1749570;81;21043;-66
2021/12/29 07:07:09;;;;;;;45.48;18.50;;;;;;;-1.83;100.00;100448.68;1747930;81;21027;-65
2021/12/29 07:09:36;;;;;;;50.20;18.42;;;;;;;-1.83;100.00;100452.46;1750685;81;21504;-65
2021/12/29 07:12:05;;;;;;;61.05;22.73;;;;;;;-1.79;100.00;100452.07;1746599;81;21031;-66
2021/12/29 07:14:32;;;;;;;53.55;20.20;;;;;;;-1.74;100.00;100445.38;1742890;81;21020;-66
2021/12/29 07:16:58;;;;;;;44.93;18.77;;;;;;;-1.66;100.00;100443.73;1750084;81;20937;-66
2021/12/29 07:19:25;;;;;;;51.77;19.98;;;;;;;-1.76;100.00;100444.50;1746688;81;20961;-65
2021/12/29 07:21:52;;;;;;;138.35;41.53;;;;;;;-1.99;100.00;100450.26;1748978;81;21516;-66
2021/12/29 07:24:19;;;;;;;57.43;24.52;;;;;;;-1.85;100.00;100446.14;1750009;81;21005;-65
2021/12/29 07:26:46;;;;;;;43.52;18.27;;;;;;;-1.91;100.00;100453.67;1712711;81;21075;-65
2021/12/29 07:29:15;;;;;;;49.48;19.95;;;;;;;-1.87;100.00;100451.59;1748533;81;21520;-66
2021/12/29 07:31:43;;;;;;;51.55;20.00;;;;;;;-1.88;100.00;100452.45;1749297;81;21071;-66
2021/12/29 07:34:10;;;;;;;35.83;15.95;;;;;;;-1.83;100.00;100461.30;1747096;81;20985;-65
2021/12/29 07:36:38;;;;;;;37.42;14.98;;;;;;;-1.78;100.00;100467.62;1748534;81;21013;-66
2021/12/29 07:39:09;;;;;;;32.98;14.40;;;;;;;-1.63;100.00;100464.77;1753941;81;21049;-66
2021/12/29 07:41:34;;;;;;;28.87;13.68;;;;;;;-1.52;100.00;100461.45;1751703;80;21025;-66
2021/12/29 07:44:03;;;;;;;27.15;12.90;;;;;;;-1.58;100.00;100464.81;1757753;81;21008;-66
2021/12/29 07:46:33;;;;;;;30.77;13.15;;;;;;;-1.61;100.00;100476.14;1747325;81;20999;-66
2021/12/29 07:49:02;;;;;;;24.70;12.28;;;;;;;-1.55;100.00;100481.22;1746651;80;21126;-66
2021/12/29 07:51:28;;;;;;;24.98;11.75;;;;;;;-1.58;100.00;100485.00;1706538;84;22245;-65
2021/12/29 07:53:58;;;;;;;23.60;11.97;;;;;;;-1.66;100.00;100486.64;1713050;82;21548;-65
2021/12/29 07:56:25;;;;;;;23.05;11.57;;;;;;;-1.57;100.00;100489.62;1709238;83;21012;-65
2021/12/29 07:58:52;;;;;;;20.68;10.03;;;;;;;-1.42;100.00;100492.20;1710954;84;21080;-65
2021/12/29 08:01:20;;;;;;;23.67;11.90;;;;;;;-1.71;100.00;100490.38;1706610;83;21025;-65
2021/12/29 08:03:48;;;;;;;26.07;11.20;;;;;;;-1.64;100.00;100496.33;1684274;84;21560;-65
2021/12/29 08:06:19;;;;;;;28.87;12.20;;;;;;;-1.88;100.00;100500.80;1706439;84;21084;-65
2021/12/29 08:08:46;;;;;;;27.32;13.08;;;;;;;-1.87;100.00;100497.01;1706465;83;21100;-66
2021/12/29 08:11:16;;;;;;;26.80;13.78;;;;;;;-1.79;100.00;100496.23;1706516;84;21457;-65
2021/12/29 08:13:43;;;;;;;25.50;13.60;;;;;;;-1.55;100.00;100495.52;1706314;84;21005;-65
2021/12/29 08:16:10;;;;;;;24.47;12.55;;;;;;;-1.47;100.00;100495.98;1684852;84;21567;-65
2021/12/29 08:18:39;;;;;;;27.52;13.25;;;;;;;-1.71;100.00;100491.64;1690118;84;21050;-66
2021/12/29 08:21:06;;;;;;;25.30;13.00;;;;;;;-1.57;100.00;100494.25;1693379;83;21064;-65
2021/12/29 08:23:33;;;;;;;26.25;12.40;;;;;;;-1.54;100.00;100492.15;1706502;84;21025;-66
2021/12/29 08:26:01;;;;;;;25.82;12.35;;;;;;;-1.61;100.00;100490.86;1705752;84;21059;-65
2021/12/29 08:28:28;;;;;;;26.87;12.43;;;;;;;-1.64;100.00;100495.91;1705445;83;21115;-66
2021/12/29 08:30:56;;;;;;;23.25;11.78;;;;;;;-1.56;100.00;100501.00;1712457;83;21088;-66
2021/12/29 08:33:25;;;;;;;24.85;11.75;;;;;;;-1.59;100.00;100502.66;1706031;83;21048;-66
2021/12/29 08:35:52;;;;;;;25.60;12.25;;;;;;;-1.65;100.00;100502.20;1706843;83;21012;-66
2021/12/29 08:38:19;;;;;;;20.77;10.85;;;;;;;-1.63;100.00;100497.58;1701269;83;20988;-65
2021/12/29 08:40:46;;;;;;;20.70;11.25;;;;;;;-1.57;100.00;100497.20;1693595;83;21110;-66
2021/12/29 08:43:15;;;;;;;35.52;14.18;;;;;;;-1.47;100.00;100501.45;1700482;82;21457;-66
2021/12/29 08:45:43;;;;;;;38.15;15.05;;;;;;;-1.34;100.00;100494.34;1719481;82;20981;-66
2021/12/29 08:48:11;;;;;;;28.07;12.90;;;;;;;-1.23;100.00;100486.84;1693751;83;21052;-66
2021/12/29 08:50:39;;;;;;;35.20;14.90;;;;;;;-1.36;100.00;100492.66;1685952;84;21041;-66
2021/12/29 08:53:08;;;;;;;39.03;16.52;;;;;;;-1.36;100.00;100486.34;1703411;83;21068;-65
2021/12/29 08:55:37;;;;;;;36.95;14.98;;;;;;;-1.22;100.00;100479.67;1696446;83;21047;-66
2021/12/29 08:58:07;;;;;;;33.23;15.18;;;;;;;-1.18;100.00;100478.00;1744168;81;21074;-66
2021/12/29 09:00:35;;;;;;;32.45;14.38;;;;;;;-1.21;100.00;100481.37;1743810;81;21074;-66
2021/12/29 09:03:02;;;;;;;22.67;11.25;;;;;;;-1.35;100.00;100486.79;1743592;82;21031;-65
2021/12/29 09:05:30;;;;;;;22.95;11.53;;;;;;;-1.30;100.00;100488.90;1744186;82;21510;-66
2021/12/29 09:07:57;;;;;;;27.02;12.15;;;;;;;-1.23;100.00;100482.62;1743948;81;21140;-66
2021/12/29 09:10:25;;;;;;;23.00;11.05;;;;;;;-1.22;100.00;100479.27;1754634;80;20965;-66
2021/12/29 09:12:53;;;;;;;25.32;12.18;;;;;;;-1.39;100.00;100485.92;1748601;81;21074;-66
2021/12/29 09:15:22;;;;;;;23.15;12.07;;;;;;;-1.25;100.00;100491.04;1750549;81;21035;-66
2021/12/29 09:17:49;;;;;;;30.52;14.15;;;;;;;-1.28;100.00;100492.27;1754319;81;21498;-66
2021/12/29 09:20:25;;;;;;;24.35;11.70;;;;;;;-1.10;100.00;100491.08;1708597;84;21593;-66
2021/12/29 09:22:45;;;;;;;26.90;13.48;;;;;;;-1.18;100.00;100491.89;1745172;80;21655;-66
2021/12/29 09:25:12;;;;;;;24.15;12.35;;;;;;;-0.99;100.00;100491.13;1744082;82;20998;-66
2021/12/29 09:27:39;;;;;;;25.17;13.08;;;;;;;-1.13;100.00;100488.55;1708453;84;21030;-66
2021/12/29 09:30:07;;;;;;;21.77;11.33;;;;;;;-1.06;100.00;100491.94;1744214;82;21025;-66
2021/12/29 09:32:36;;;;;;;22.58;11.90;;;;;;;-1.14;100.00;100493.59;1712272;82;21020;-66
2021/12/29 09:35:03;;;;;;;25.30;11.97;;;;;;;-1.14;100.00;100501.17;1771653;81;20988;-66
2021/12/29 09:37:30;;;;;;;23.85;10.98;;;;;;;-1.26;100.00;100510.41;1775028;80;21067;-66
2021/12/29 09:39:58;;;;;;;27.17;11.55;;;;;;;-1.17;100.00;100505.80;1774998;81;21110;-66
2021/12/29 09:42:25;;;;;;;24.40;10.72;;;;;;;-1.04;100.00;100497.41;1774226;80;21349;-66
2021/12/29 09:44:52;;;;;;;23.65;11.73;;;;;;;-1.19;100.00;100510.43;1775021;81;21039;-66
2021/12/29 09:47:19;;;;;;;28.92;13.25;;;;;;;-1.26;100.00;100504.09;1774759;81;21032;-66
2021/12/29 09:49:46;;;;;;;28.40;13.15;;;;;;;-1.09;100.00;100491.95;1774989;81;21094;-66
2021/12/29 09:52:13;;;;;;;23.00;12.03;;;;;;;-1.03;100.00;100487.74;1773703;80;21028;-66
2021/12/29 09:54:40;;;;;;;26.45;12.73;;;;;;;-1.01;100.00;100481.44;1759063;80;21005;-66
2021/12/29 09:57:08;;;;;;;26.17;14.15;;;;;;;-1.02;100.00;100473.42;1743913;82;21096;-66
2021/12/29 09:59:35;;;;;;;24.43;13.08;;;;;;;-0.91;100.00;100468.38;1743752;82;21158;-66
2021/12/29 10:02:03;;;;;;;22.52;12.30;;;;;;;-1.03;100.00;100467.53;1744025;81;21046;-66
2021/12/29 10:04:34;;;;;;;19.02;10.38;;;;;;;-0.99;100.00;100474.71;1744207;82;21025;-67
2021/12/29 10:07:10;;;;;;;21.20;11.60;;;;;;;-1.12;100.00;100474.23;1707917;84;21530;-66
2021/12/29 10:09:39;;;;;;;24.67;12.10;;;;;;;-0.98;100.00;100471.33;1678418;84;21641;-67
2021/12/29 10:12:10;;;;;;;22.40;12.23;;;;;;;-0.98;100.00;100473.02;1681978;84;21019;-66
2021/12/29 10:14:38;;;;;;;21.75;12.05;;;;;;;-0.95;100.00;100474.27;1679597;85;21039;-67
2021/12/29 10:17:12;;;;;;;22.35;12.00;;;;;;;-0.95;100.00;100476.80;1680375;84;21035;-66
2021/12/29 10:19:40;;;;;;;19.80;11.05;;;;;;;-0.91;100.00;100476.84;1678113;84;21062;-66
2021/12/29 10:22:07;;;;;;;20.80;11.40;;;;;;;-0.99;100.00;100476.37;1696653;84;21024;-67
2021/12/29 10:24:36;;;;;;;17.60;9.95;;;;;;;-1.04;100.00;100476.36;1684826;84;21629;-66
2021/12/29 10:27:04;;;;;;;18.48;10.00;;;;;;;-1.16;100.00;100480.95;1683395;84;21009;-66
2021/12/29 10:29:32;;;;;;;21.17;10.98;;;;;;;-1.30;100.00;100482.19;1705854;83;20997;-67
2021/12/29 10:32:06;;;;;;;26.33;13.48;;;;;;;-1.36;100.00;100490.13;1705789;84;21139;-66
2021/12/29 10:34:33;;;;;;;20.60;12.10;;;;;;;-1.52;100.00;100486.30;1704709;83;21032;-66
2021/12/29 10:37:11;;;;;;;17.80;10.15;;;;;;;-1.58;100.00;100493.84;1706620;83;21056;-66
2021/12/29 10:39:48;;;;;;;19.60;10.50;;;;;;;-1.57;100.00;100488.36;1707639;83;21024;-66
2021/12/29 10:42:21;;;;;;;25.60;12.53;;;;;;;-1.57;100.00;100498.03;1703585;83;21037;-65
2021/12/29 10:45:00;;;;;;;40.33;15.28;;;;;;;-1.60;100.00;100492.98;1703760;84;21059;-66
2021/12/29 10:47:33;;;;;;;37.75;15.45;;;;;;;-1.84;100.00;100485.69;1704700;83;21057;-67
2021/12/29 10:50:10;;;;;;;25.40;12.45;;;;;;;-1.90;100.00;100495.74;1763124;81;21031;-66
2021/12/29 10:52:43;;;;;;;21.45;10.48;;;;;;;-1.63;100.00;100486.22;1769787;81;21520;-66
2021/12/29 10:55:17;;;;;;;16.48;9.45;;;;;;;-1.73;100.00;100491.22;1769442;81;20996;-66
2021/12/29 10:57:47;;;;;;;17.17;9.25;;;;;;;-1.64;100.00;100492.55;1770069;81;21516;-67
2021/12/29 11:00:18;;;;;;;15.95;9.40;;;;;;;-1.75;100.00;100491.20;1748370;81;21095;-66
2021/12/29 11:02:46;;;;;;;15.60;8.25;;;;;;;-1.89;100.00;100499.10;1769835;81;21024;-67
2021/12/29 11:05:13;;;;;;;15.23;9.55;;;;;;;-1.97;100.00;100504.52;1769735;81;21063;-66
2021/12/29 11:07:43;;;;;;;17.48;10.20;;;;;;;-1.78;100.00;100499.16;1769601;80;21520;-66
2021/12/29 11:10:17;;;;;;;18.15;10.03;;;;;;;-1.67;100.00;100500.92;1770021;81;21543;-66
2021/12/29 11:12:55;;;;;;;26.95;13.22;;;;;;;-1.63;100.00;100500.10;1770234;81;20989;-66